sensor_id;sensor_type;location;lat;lon;timestamp;pressure;altitude;pressure_sealevel;temperature;humidity
53270;BME280;39159;45.634;9.420;2023-02-21T00:01:24;99574.16;;;5.66;100.00
53270;BME280;39159;45.634;9.420;2023-02-21T00:04:08;99569.84;;;5.65;100.00
53270;BME280;39159;45.634;9.420;2023-02-21T00:06:52;99563.88;;;5.63;100.00
53270;BME280;39159;45.634;9.420;2023-02-21T00:09:38;99561.72;;;5.65;100.00
53270;BME280;39159;45.634;9.420;2023-02-21T00:12:21;99564.69;;;5.64;100.00
53270;BME280;39159;45.634;9.420;2023-02-21T00:15:05;99559.25;;;5.64;100.00
53270;BME280;39159;45.634;9.420;2023-02-21T00:17:49;99553.53;;;5.60;100.00
53270;BME280;39159;45.634;9.420;2023-02-21T00:20:33;99554.06;;;5.57;100.00
53270;BME280;39159;45.634;9.420;2023-02-21T00:23:17;99549.22;;;5.59;100.00
53270;BME280;39159;45.634;9.420;2023-02-21T00:26:01;99552.94;;;5.53;100.00
53270;BME280;39159;45.634;9.420;2023-02-21T00:28:45;99538.56;;;5.47;100.00
53270;BME280;39159;45.634;9.420;2023-02-21T00:31:29;99540.41;;;5.42;100.00
53270;BME280;39159;45.634;9.420;2023-02-21T00:34:12;99534.47;;;5.45;100.00
53270;BME280;39159;45.634;9.420;2023-02-21T00:36:56;99535.81;;;5.42;100.00
53270;BME280;39159;45.634;9.420;2023-02-21T00:39:40;99534.75;;;5.43;100.00
53270;BME280;39159;45.634;9.420;2023-02-21T00:42:24;99528.25;;;5.44;100.00
53270;BME280;39159;45.634;9.420;2023-02-21T00:45:09;99528.22;;;5.39;100.00
53270;BME280;39159;45.634;9.420;2023-02-21T00:47:53;99531.19;;;5.37;100.00
53270;BME280;39159;45.634;9.420;2023-02-21T00:50:37;99537.38;;;5.33;100.00
53270;BME280;39159;45.634;9.420;2023-02-21T00:53:23;99527.31;;;5.28;100.00
53270;BME280;39159;45.634;9.420;2023-02-21T00:56:07;99530.56;;;5.25;100.00
53270;BME280;39159;45.634;9.420;2023-02-21T00:58:51;99538.69;;;5.25;100.00
53270;BME280;39159;45.634;9.420;2023-02-21T01:01:35;99530.00;;;5.23;100.00
53270;BME280;39159;45.634;9.420;2023-02-21T01:04:19;99525.41;;;5.24;100.00
53270;BME280;39159;45.634;9.420;2023-02-21T01:07:03;99532.47;;;5.25;100.00
53270;BME280;39159;45.634;9.420;2023-02-21T01:09:46;99533.50;;;5.24;100.00
53270;BME280;39159;45.634;9.420;2023-02-21T01:12:30;99532.72;;;5.23;100.00
53270;BME280;39159;45.634;9.420;2023-02-21T01:15:14;99520.75;;;5.19;100.00
53270;BME280;39159;45.634;9.420;2023-02-21T01:17:58;99532.41;;;5.19;100.00
53270;BME280;39159;45.634;9.420;2023-02-21T01:20:42;99531.34;;;5.21;100.00
53270;BME280;39159;45.634;9.420;2023-02-21T01:23:26;99524.28;;;5.19;100.00
53270;BME280;39159;45.634;9.420;2023-02-21T01:26:10;99521.53;;;5.14;100.00
53270;BME280;39159;45.634;9.420;2023-02-21T01:28:54;99518.84;;;5.14;100.00
53270;BME280;39159;45.634;9.420;2023-02-21T01:31:38;99516.13;;;5.14;100.00
53270;BME280;39159;45.634;9.420;2023-02-21T01:34:22;99519.91;;;5.13;100.00
53270;BME280;39159;45.634;9.420;2023-02-21T01:37:06;99511.75;;;5.08;100.00
53270;BME280;39159;45.634;9.420;2023-02-21T01:39:50;99505.22;;;5.04;100.00
53270;BME280;39159;45.634;9.420;2023-02-21T01:42:34;99504.72;;;5.07;100.00
53270;BME280;39159;45.634;9.420;2023-02-21T01:48:13;99497.66;;;5.06;100.00
53270;BME280;39159;45.634;9.420;2023-02-21T01:50:58;99491.97;;;5.03;100.00
53270;BME280;39159;45.634;9.420;2023-02-21T01:53:45;99494.16;;;5.06;100.00
53270;BME280;39159;45.634;9.420;2023-02-21T01:56:30;99488.41;;;5.02;100.00
53270;BME280;39159;45.634;9.420;2023-02-21T01:59:16;99488.41;;;5.02;100.00
53270;BME280;39159;45.634;9.420;2023-02-21T02:02:13;99481.72;;;5.05;100.00
53270;BME280;39159;45.634;9.420;2023-02-21T02:04:59;99477.09;;;5.05;100.00
53270;BME280;39159;45.634;9.420;2023-02-21T02:07:43;99487.16;;;5.10;100.00
53270;BME280;39159;45.634;9.420;2023-02-21T02:10:27;99489.03;;;5.09;100.00
53270;BME280;39159;45.634;9.420;2023-02-21T02:36:02;99468.69;;;4.69;100.00
53270;BME280;39159;45.634;9.420;2023-02-21T02:41:27;99466.28;;;4.73;100.00
53270;BME280;39159;45.634;9.420;2023-02-21T02:44:05;99463.06;;;4.76;100.00
53270;BME280;39159;45.634;9.420;2023-02-21T02:46:36;99465.00;;;4.81;100.00
53270;BME280;39159;45.634;9.420;2023-02-21T02:49:07;99470.69;;;4.84;100.00
53270;BME280;39159;45.634;9.420;2023-02-21T02:51:34;99463.44;;;4.90;100.00
53270;BME280;39159;45.634;9.420;2023-02-21T02:54:00;99461.31;;;4.92;100.00
53270;BME280;39159;45.634;9.420;2023-02-21T02:56:25;99460.22;;;4.93;100.00
53270;BME280;39159;45.634;9.420;2023-02-21T02:59:03;99463.47;;;4.95;100.00
53270;BME280;39159;45.634;9.420;2023-02-21T03:01:44;99462.44;;;4.96;100.00
53270;BME280;39159;45.634;9.420;2023-02-21T03:09:55;99456.50;;;4.99;100.00
53270;BME280;39159;45.634;9.420;2023-02-21T03:15:32;99457.06;;;5.06;100.00
53270;BME280;39159;45.634;9.420;2023-02-21T03:18:08;99452.78;;;5.10;100.00
53270;BME280;39159;45.634;9.420;2023-02-21T03:20:37;99457.66;;;5.13;100.00
53270;BME280;39159;45.634;9.420;2023-02-21T03:23:05;99458.00;;;5.22;100.00
53270;BME280;39159;45.634;9.420;2023-02-21T03:25:31;99455.34;;;5.27;100.00
53270;BME280;39159;45.634;9.420;2023-02-21T03:27:59;99451.31;;;5.35;100.00
53270;BME280;39159;45.634;9.420;2023-02-21T03:30:27;99459.22;;;5.42;100.00
53270;BME280;39159;45.634;9.420;2023-02-21T03:32:54;99451.13;;;5.47;100.00
53270;BME280;39159;45.634;9.420;2023-02-21T03:35:20;99459.00;;;5.53;100.00
53270;BME280;39159;45.634;9.420;2023-02-21T03:37:48;99453.34;;;5.55;100.00
53270;BME280;39159;45.634;9.420;2023-02-21T03:42:42;99454.13;;;5.50;100.00
53270;BME280;39159;45.634;9.420;2023-02-21T03:45:08;99464.16;;;5.55;100.00
53270;BME280;39159;45.634;9.420;2023-02-21T03:47:34;99461.22;;;5.56;100.00
53270;BME280;39159;45.634;9.420;2023-02-21T03:50:00;99461.22;;;5.56;100.00
53270;BME280;39159;45.634;9.420;2023-02-21T03:52:25;99454.16;;;5.55;100.00
53270;BME280;39159;45.634;9.420;2023-02-21T03:54:50;99451.66;;;5.49;100.00
53270;BME280;39159;45.634;9.420;2023-02-21T03:57:16;99456.84;;;5.50;100.00
53270;BME280;39159;45.634;9.420;2023-02-21T03:59:41;99450.06;;;5.48;100.00
53270;BME280;39159;45.634;9.420;2023-02-21T04:02:07;99454.59;;;5.42;100.00
53270;BME280;39159;45.634;9.420;2023-02-21T04:04:33;99456.75;;;5.40;100.00
53270;BME280;39159;45.634;9.420;2023-02-21T04:06:58;99454.59;;;5.37;100.00
53270;BME280;39159;45.634;9.420;2023-02-21T04:09:23;99451.34;;;5.40;100.00
53270;BME280;39159;45.634;9.420;2023-02-21T04:11:50;99459.78;;;5.44;100.00
53270;BME280;39159;45.634;9.420;2023-02-21T04:14:16;99458.16;;;5.43;100.00
53270;BME280;39159;45.634;9.420;2023-02-21T04:16:41;99454.34;;;5.44;100.00
53270;BME280;39159;45.634;9.420;2023-02-21T04:19:07;99462.22;;;5.45;100.00
53270;BME280;39159;45.634;9.420;2023-02-21T04:21:32;99459.78;;;5.44;100.00
53270;BME280;39159;45.634;9.420;2023-02-21T04:23:58;99453.56;;;5.43;100.00
53270;BME280;39159;45.634;9.420;2023-02-21T04:26:23;99453.56;;;5.43;100.00
53270;BME280;39159;45.634;9.420;2023-02-21T04:28:50;99450.84;;;5.43;100.00
53270;BME280;39159;45.634;9.420;2023-02-21T04:31:16;99453.00;;;5.41;100.00
53270;BME280;39159;45.634;9.420;2023-02-21T04:33:43;99448.63;;;5.40;100.00
53270;BME280;39159;45.634;9.420;2023-02-21T04:36:09;99444.06;;;5.40;100.00
53270;BME280;39159;45.634;9.420;2023-02-21T04:38:34;99450.50;;;5.29;100.00
53270;BME280;39159;45.634;9.420;2023-02-21T04:41:02;99448.53;;;5.19;100.00
53270;BME280;39159;45.634;9.420;2023-02-21T04:43:28;99435.72;;;5.05;100.00
53270;BME280;39159;45.634;9.420;2023-02-21T04:45:53;99438.41;;;5.05;100.00
53270;BME280;39159;45.634;9.420;2023-02-21T04:48:18;99439.22;;;5.05;100.00
53270;BME280;39159;45.634;9.420;2023-02-21T04:50:44;99435.72;;;5.05;100.00
53270;BME280;39159;45.634;9.420;2023-02-21T04:53:10;99440.84;;;5.06;100.00
53270;BME280;39159;45.634;9.420;2023-02-21T04:55:35;99437.88;;;5.03;100.00
53270;BME280;39159;45.634;9.420;2023-02-21T04:58:01;99432.19;;;5.04;100.00
53270;BME280;39159;45.634;9.420;2023-02-21T05:00:26;99436.53;;;5.05;100.00
53270;BME280;39159;45.634;9.420;2023-02-21T05:02:52;99434.38;;;5.07;100.00
53270;BME280;39159;45.634;9.420;2023-02-21T05:05:17;99428.22;;;5.22;100.00
53270;BME280;39159;45.634;9.420;2023-02-21T05:07:42;99429.06;;;5.23;100.00
53270;BME280;39159;45.634;9.420;2023-02-21T05:10:09;99424.75;;;5.27;100.00
53270;BME280;39159;45.634;9.420;2023-02-21T05:12:36;99419.84;;;5.18;100.00
53270;BME280;39159;45.634;9.420;2023-02-21T05:15:05;99423.84;;;5.11;100.00
53270;BME280;39159;45.634;9.420;2023-02-21T05:17:31;99414.81;;;5.00;100.00
53270;BME280;39159;45.634;9.420;2023-02-21T05:19:56;99405.06;;;4.94;100.00
53270;BME280;39159;45.634;9.420;2023-02-21T05:22:22;99415.56;;;4.85;100.00
53270;BME280;39159;45.634;9.420;2023-02-21T05:24:48;99414.69;;;4.80;100.00
53270;BME280;39159;45.634;9.420;2023-02-21T05:27:18;99412.53;;;4.82;100.00
53270;BME280;39159;45.634;9.420;2023-02-21T05:29:48;99411.41;;;4.77;100.00
53270;BME280;39159;45.634;9.420;2023-02-21T05:32:15;99412.41;;;4.66;100.00
53270;BME280;39159;45.634;9.420;2023-02-21T05:34:41;99404.81;;;4.63;100.00
53270;BME280;39159;45.634;9.420;2023-02-21T05:37:09;99398.53;;;4.57;100.00
53270;BME280;39159;45.634;9.420;2023-02-21T05:39:35;99405.31;;;4.60;100.00
53270;BME280;39159;45.634;9.420;2023-02-21T05:42:00;99402.41;;;4.67;100.00
53270;BME280;39159;45.634;9.420;2023-02-21T05:44:26;99396.19;;;4.66;100.00
53270;BME280;39159;45.634;9.420;2023-02-21T05:46:51;99404.09;;;4.73;100.00
53270;BME280;39159;45.634;9.420;2023-02-21T05:49:16;99397.84;;;4.67;100.00
53270;BME280;39159;45.634;9.420;2023-02-21T05:51:43;99393.00;;;4.69;100.00
53270;BME280;39159;45.634;9.420;2023-02-21T05:54:13;99399.19;;;4.70;100.00
53270;BME280;39159;45.634;9.420;2023-02-21T05:56:40;99401.38;;;4.73;100.00
53270;BME280;39159;45.634;9.420;2023-02-21T05:59:06;99399.81;;;4.82;100.00
53270;BME280;39159;45.634;9.420;2023-02-21T06:01:33;99398.53;;;4.90;100.00
53270;BME280;39159;45.634;9.420;2023-02-21T06:03:58;99395.94;;;5.05;100.00
53270;BME280;39159;45.634;9.420;2023-02-21T06:06:24;99399.22;;;5.07;100.00
53270;BME280;39159;45.634;9.420;2023-02-21T06:08:49;99398.44;;;5.17;100.00
53270;BME280;39159;45.634;9.420;2023-02-21T06:11:20;99397.97;;;5.25;100.00
53270;BME280;39159;45.634;9.420;2023-02-21T06:13:49;99398.00;;;5.30;100.00
53270;BME280;39159;45.634;9.420;2023-02-21T06:16:15;99400.47;;;5.37;100.00
53270;BME280;39159;45.634;9.420;2023-02-21T06:18:40;99400.47;;;5.42;100.00
53270;BME280;39159;45.634;9.420;2023-02-21T06:21:05;99400.53;;;5.47;100.00
53270;BME280;39159;45.634;9.420;2023-02-21T06:23:31;99403.03;;;5.64;100.00
53270;BME280;39159;45.634;9.420;2023-02-21T06:25:56;99396.25;;;5.67;100.00
53270;BME280;39159;45.634;9.420;2023-02-21T06:28:27;99398.22;;;5.76;100.00
53270;BME280;39159;45.634;9.420;2023-02-21T06:30:53;99405.78;;;5.79;100.00
53270;BME280;39159;45.634;9.420;2023-02-21T06:33:18;99406.91;;;5.84;100.00
53270;BME280;39159;45.634;9.420;2023-02-21T06:35:44;99404.75;;;5.86;100.00
53270;BME280;39159;45.634;9.420;2023-02-21T06:38:09;99407.19;;;5.87;100.00
53270;BME280;39159;45.634;9.420;2023-02-21T06:40:35;99406.97;;;6.04;100.00
53270;BME280;39159;45.634;9.420;2023-02-21T06:43:01;99405.63;;;6.01;100.00
53270;BME280;39159;45.634;9.420;2023-02-21T06:45:26;99409.69;;;6.04;100.00
53270;BME280;39159;45.634;9.420;2023-02-21T06:47:52;99412.44;;;6.09;100.00
53270;BME280;39159;45.634;9.420;2023-02-21T06:50:17;99406.22;;;6.14;100.00
53270;BME280;39159;45.634;9.420;2023-02-21T06:52:42;99410.53;;;6.20;100.00
53270;BME280;39159;45.634;9.420;2023-02-21T06:55:08;99411.94;;;6.28;100.00
53270;BME280;39159;45.634;9.420;2023-02-21T06:57:33;99414.09;;;6.31;100.00
53270;BME280;39159;45.634;9.420;2023-02-21T06:59:59;99410.56;;;6.35;100.00
53270;BME280;39159;45.634;9.420;2023-02-21T07:02:24;99414.66;;;6.43;100.00
53270;BME280;39159;45.634;9.420;2023-02-21T07:04:49;99416.03;;;6.51;100.00
53270;BME280;39159;45.634;9.420;2023-02-21T07:07:15;99415.75;;;6.62;100.00
53270;BME280;39159;45.634;9.420;2023-02-21T07:09:41;99416.31;;;6.70;100.00
53270;BME280;39159;45.634;9.420;2023-02-21T07:12:06;99419.00;;;6.80;100.00
53270;BME280;39159;45.634;9.420;2023-02-21T07:14:33;99415.47;;;6.84;100.00
53270;BME280;39159;45.634;9.420;2023-02-21T07:16:59;99419.84;;;6.91;100.00
53270;BME280;39159;45.634;9.420;2023-02-21T07:19:24;99413.88;;;6.99;100.00
53270;BME280;39159;45.634;9.420;2023-02-21T07:21:50;99413.03;;;7.09;100.00
53270;BME280;39159;45.634;9.420;2023-02-21T07:24:15;99421.44;;;7.12;100.00
53270;BME280;39159;45.634;9.420;2023-02-21T07:26:41;99416.03;;;7.12;100.00
53270;BME280;39159;45.634;9.420;2023-02-21T07:29:06;99414.66;;;7.15;100.00
53270;BME280;39159;45.634;9.420;2023-02-21T07:31:32;99415.19;;;7.17;100.00
53270;BME280;39159;45.634;9.420;2023-02-21T07:33:57;99419.81;;;7.21;100.00
53270;BME280;39159;45.634;9.420;2023-02-21T07:36:23;99425.22;;;7.26;100.00
53270;BME280;39159;45.634;9.420;2023-02-21T07:38:48;99415.41;;;7.36;100.00
53270;BME280;39159;45.634;9.420;2023-02-21T07:41:15;99435.78;;;7.43;100.00
53270;BME280;39159;45.634;9.420;2023-02-21T07:43:41;99421.34;;;7.53;100.00
53270;BME280;39159;45.634;9.420;2023-02-21T07:46:10;99427.84;;;7.67;100.00
53270;BME280;39159;45.634;9.420;2023-02-21T07:48:36;99421.81;;;7.81;100.00
53270;BME280;39159;45.634;9.420;2023-02-21T07:51:01;99428.50;;;8.04;100.00
53270;BME280;39159;45.634;9.420;2023-02-21T07:53:27;99421.81;;;8.30;100.00
53270;BME280;39159;45.634;9.420;2023-02-21T07:55:52;99422.56;;;8.52;100.00
53270;BME280;39159;45.634;9.420;2023-02-21T07:58:17;99422.94;;;8.69;100.00
53270;BME280;39159;45.634;9.420;2023-02-21T08:00:43;99417.56;;;8.98;100.00
53270;BME280;39159;45.634;9.420;2023-02-21T08:03:11;99418.19;;;9.19;100.00
53270;BME280;39159;45.634;9.420;2023-02-21T08:07:09;99413.09;;;9.37;100.00
53270;BME280;39159;45.634;9.420;2023-02-21T08:09:35;99411.19;;;9.61;100.00
53270;BME280;39159;45.634;9.420;2023-02-21T08:12:02;99404.97;;;9.55;100.00
53270;BME280;39159;45.634;9.420;2023-02-21T08:14:28;99408.94;;;9.68;100.00
53270;BME280;39159;45.634;9.420;2023-02-21T08:16:53;99405.13;;;9.69;100.00
53270;BME280;39159;45.634;9.420;2023-02-21T08:19:19;99407.63;;;9.85;100.00
53270;BME280;39159;45.634;9.420;2023-02-21T08:21:46;99411.81;;;10.01;100.00
53270;BME280;39159;45.634;9.420;2023-02-21T08:24:12;99408.88;;;10.16;100.00
53270;BME280;39159;45.634;9.420;2023-02-21T08:26:37;99409.78;;;10.31;100.00
53270;BME280;39159;45.634;9.420;2023-02-21T08:29:05;99406.63;;;10.43;100.00
53270;BME280;39159;45.634;9.420;2023-02-21T08:31:34;99405.56;;;10.76;100.00
53270;BME280;39159;45.634;9.420;2023-02-21T08:34:00;99414.81;;;10.94;100.00
53270;BME280;39159;45.634;9.420;2023-02-21T08:36:38;99413.25;;;11.21;100.00
53270;BME280;39159;45.634;9.420;2023-02-21T08:39:05;99405.69;;;11.32;100.00
53270;BME280;39159;45.634;9.420;2023-02-21T08:41:48;99411.69;;;11.48;100.00
53270;BME280;39159;45.634;9.420;2023-02-21T08:44:16;99413.22;;;11.54;100.00
53270;BME280;39159;45.634;9.420;2023-02-21T08:46:42;99399.94;;;11.75;100.00
53270;BME280;39159;45.634;9.420;2023-02-21T08:49:08;99405.00;;;11.95;100.00
53270;BME280;39159;45.634;9.420;2023-02-21T08:51:34;99397.16;;;12.30;100.00
53270;BME280;39159;45.634;9.420;2023-02-21T08:54:00;99407.00;;;12.54;98.93
53270;BME280;39159;45.634;9.420;2023-02-21T08:56:26;99397.47;;;12.74;95.38
53270;BME280;39159;45.634;9.420;2023-02-21T08:58:52;99396.28;;;13.11;96.99
53270;BME280;39159;45.634;9.420;2023-02-21T09:01:22;99398.56;;;13.18;91.40
53270;BME280;39159;45.634;9.420;2023-02-21T09:03:48;99397.06;;;13.03;91.92
53270;BME280;39159;45.634;9.420;2023-02-21T09:06:14;99400.59;;;13.03;92.26
53270;BME280;39159;45.634;9.420;2023-02-21T09:08:39;99394.41;;;13.52;91.89
53270;BME280;39159;45.634;9.420;2023-02-21T09:11:06;99395.81;;;13.40;87.17
53270;BME280;39159;45.634;9.420;2023-02-21T09:13:31;99398.78;;;13.53;87.08
53270;BME280;39159;45.634;9.420;2023-02-21T09:15:58;99397.91;;;13.83;84.80
53270;BME280;39159;45.634;9.420;2023-02-21T09:18:24;99394.84;;;13.94;83.69
53270;BME280;39159;45.634;9.420;2023-02-21T09:20:49;99393.75;;;13.95;81.46
53270;BME280;39159;45.634;9.420;2023-02-21T09:23:18;99391.03;;;14.21;80.72
53270;BME280;39159;45.634;9.420;2023-02-21T09:25:44;99401.06;;;14.17;81.41
53270;BME280;39159;45.634;9.420;2023-02-21T09:28:10;99393.81;;;14.56;80.77
53270;BME280;39159;45.634;9.420;2023-02-21T09:30:35;99397.72;;;14.55;80.00
53270;BME280;39159;45.634;9.420;2023-02-21T09:33:01;99390.03;;;13.99;80.26
53270;BME280;39159;45.634;9.420;2023-02-21T09:35:26;99390.09;;;14.43;79.94
53270;BME280;39159;45.634;9.420;2023-02-21T09:37:55;99394.69;;;13.81;82.20
53270;BME280;39159;45.634;9.420;2023-02-21T09:42:49;99392.25;;;13.88;81.83
53270;BME280;39159;45.634;9.420;2023-02-21T09:45:17;99389.22;;;13.90;82.21
53270;BME280;39159;45.634;9.420;2023-02-21T09:47:50;99390.56;;;14.19;82.41
53270;BME280;39159;45.634;9.420;2023-02-21T09:50:21;99382.47;;;14.40;80.04
53270;BME280;39159;45.634;9.420;2023-02-21T09:52:52;99387.47;;;14.03;80.21
53270;BME280;39159;45.634;9.420;2023-02-21T09:55:34;99384.69;;;13.85;81.87
53270;BME280;39159;45.634;9.420;2023-02-21T09:58:00;99386.59;;;13.76;82.69
53270;BME280;39159;45.634;9.420;2023-02-21T10:00:34;99396.88;;;13.62;82.84
53270;BME280;39159;45.634;9.420;2023-02-21T10:11:36;99396.59;;;13.32;88.34
53270;BME280;39159;45.634;9.420;2023-02-21T10:19:52;99396.53;;;13.55;84.86
53270;BME280;39159;45.634;9.420;2023-02-21T10:22:24;99398.56;;;13.18;87.78
53270;BME280;39159;45.634;9.420;2023-02-21T10:24:51;99391.78;;;13.15;87.31
53270;BME280;39159;45.634;9.420;2023-02-21T10:27:20;99394.38;;;13.12;87.88
53270;BME280;39159;45.634;9.420;2023-02-21T10:30:05;99399.06;;;13.20;88.13
53270;BME280;39159;45.634;9.420;2023-02-21T10:32:35;99400.94;;;13.33;86.48
53270;BME280;39159;45.634;9.420;2023-02-21T10:35:01;99395.63;;;13.37;85.71
53270;BME280;39159;45.634;9.420;2023-02-21T10:48:35;99390.56;;;14.54;78.76
53270;BME280;39159;45.634;9.420;2023-02-21T10:51:12;99384.41;;;14.83;75.54
53270;BME280;39159;45.634;9.420;2023-02-21T10:53:47;99377.94;;;14.96;76.32
53270;BME280;39159;45.634;9.420;2023-02-21T10:58:47;99371.81;;;15.46;73.42
53270;BME280;39159;45.634;9.420;2023-02-21T11:01:30;99370.00;;;15.03;75.04
53270;BME280;39159;45.634;9.420;2023-02-21T11:03:59;99378.97;;;14.65;75.93
53270;BME280;39159;45.634;9.420;2023-02-21T11:08:56;99358.41;;;14.02;79.16
53270;BME280;39159;45.634;9.420;2023-02-21T11:11:58;99363.72;;;14.07;80.55
53270;BME280;39159;45.634;9.420;2023-02-21T11:14:25;99348.88;;;13.99;81.01
53270;BME280;39159;45.634;9.420;2023-02-21T11:19:55;99351.16;;;14.15;80.61
53270;BME280;39159;45.634;9.420;2023-02-21T11:22:42;99346.16;;;14.60;79.97
53270;BME280;39159;45.634;9.420;2023-02-21T11:27:36;99343.91;;;14.36;78.19
53270;BME280;39159;45.634;9.420;2023-02-21T11:30:12;99343.91;;;14.27;79.58
53270;BME280;39159;45.634;9.420;2023-02-21T11:32:39;99332.72;;;13.98;81.25
53270;BME280;39159;45.634;9.420;2023-02-21T11:38:01;99332.09;;;14.18;80.62
53270;BME280;39159;45.634;9.420;2023-02-21T11:40:48;99327.25;;;14.33;80.12
53270;BME280;39159;45.634;9.420;2023-02-21T11:43:31;99320.78;;;14.72;79.48
53270;BME280;39159;45.634;9.420;2023-02-21T11:48:54;99312.38;;;14.60;78.20
53270;BME280;39159;45.634;9.420;2023-02-21T11:54:00;99306.09;;;14.59;77.16
53270;BME280;39159;45.634;9.420;2023-02-21T11:59:18;99303.50;;;15.19;75.47
53270;BME280;39159;45.634;9.420;2023-02-21T12:26:10;99260.66;;;15.68;70.67
53270;BME280;39159;45.634;9.420;2023-02-21T12:28:46;99256.69;;;15.57;70.36
53270;BME280;39159;45.634;9.420;2023-02-21T12:34:32;99238.94;;;16.17;68.00
53270;BME280;39159;45.634;9.420;2023-02-21T12:40:32;99229.44;;;16.73;64.98
53270;BME280;39159;45.634;9.420;2023-02-21T12:43:31;99224.00;;;16.85;64.48
53270;BME280;39159;45.634;9.420;2023-02-21T12:49:16;99222.84;;;16.98;62.74
53270;BME280;39159;45.634;9.420;2023-02-21T12:52:00;99218.72;;;16.92;63.24
53270;BME280;39159;45.634;9.420;2023-02-21T13:00:12;99215.06;;;15.88;66.88
53270;BME280;39159;45.634;9.420;2023-02-21T13:02:49;99207.25;;;15.48;68.63
53270;BME280;39159;45.634;9.420;2023-02-21T13:05:21;99202.06;;;15.26;71.24
53270;BME280;39159;45.634;9.420;2023-02-21T13:07:59;99201.91;;;15.22;72.02
53270;BME280;39159;45.634;9.420;2023-02-21T13:10:30;99197.94;;;15.11;71.79
53270;BME280;39159;45.634;9.420;2023-02-21T13:13:11;99195.94;;;14.90;72.88
53270;BME280;39159;45.634;9.420;2023-02-21T13:15:41;99194.44;;;14.63;75.83
53270;BME280;39159;45.634;9.420;2023-02-21T13:20:41;99189.84;;;14.76;75.86
53270;BME280;39159;45.634;9.420;2023-02-21T13:23:10;99187.31;;;14.62;76.98
53270;BME280;39159;45.634;9.420;2023-02-21T13:28:42;99178.75;;;15.02;75.41
53270;BME280;39159;45.634;9.420;2023-02-21T13:31:18;99171.53;;;14.89;75.22
53270;BME280;39159;45.634;9.420;2023-02-21T13:33:54;99168.69;;;14.77;76.44
53270;BME280;39159;45.634;9.420;2023-02-21T13:36:29;99175.81;;;14.69;76.10
53270;BME280;39159;45.634;9.420;2023-02-21T13:39:29;99161.09;;;14.74;76.49
53270;BME280;39159;45.634;9.420;2023-02-21T13:42:09;99165.34;;;15.01;75.56
53270;BME280;39159;45.634;9.420;2023-02-21T13:44:42;99162.81;;;15.17;73.71
53270;BME280;39159;45.634;9.420;2023-02-21T13:47:22;99160.97;;;15.50;72.77
53270;BME280;39159;45.634;9.420;2023-02-21T13:49:57;99154.78;;;15.53;71.79
53270;BME280;39159;45.634;9.420;2023-02-21T14:03:03;99151.41;;;15.27;73.01
53270;BME280;39159;45.634;9.420;2023-02-21T14:13:48;99147.34;;;15.12;73.45
53270;BME280;39159;45.634;9.420;2023-02-21T14:16:22;99148.13;;;15.12;72.81
53270;BME280;39159;45.634;9.420;2023-02-21T14:19:18;99143.41;;;14.92;72.92
53270;BME280;39159;45.634;9.420;2023-02-21T14:21:47;99138.03;;;14.96;73.08
53270;BME280;39159;45.634;9.420;2023-02-21T14:24:19;99143.88;;;14.94;73.56
53270;BME280;39159;45.634;9.420;2023-02-21T14:26:53;99139.19;;;14.95;73.02
53270;BME280;39159;45.634;9.420;2023-02-21T14:29:35;99142.16;;;15.10;72.08
53270;BME280;39159;45.634;9.420;2023-02-21T14:34:37;99136.81;;;15.14;73.19
53270;BME280;39159;45.634;9.420;2023-02-21T14:37:12;99134.44;;;15.25;73.08
53270;BME280;39159;45.634;9.420;2023-02-21T14:39:43;99141.56;;;15.26;72.48
53270;BME280;39159;45.634;9.420;2023-02-21T15:06:21;99124.06;;;14.41;74.06
53270;BME280;39159;45.634;9.420;2023-02-21T15:08:51;99117.94;;;14.36;74.77
53270;BME280;39159;45.634;9.420;2023-02-21T15:13:41;99122.53;;;14.23;75.18
53270;BME280;39159;45.634;9.420;2023-02-21T15:16:09;99122.19;;;14.24;75.12
53270;BME280;39159;45.634;9.420;2023-02-21T15:18:37;99127.56;;;14.12;74.83
53270;BME280;39159;45.634;9.420;2023-02-21T15:24:02;99119.34;;;14.03;76.51
53270;BME280;39159;45.634;9.420;2023-02-21T15:26:31;99121.75;;;14.05;76.77
53270;BME280;39159;45.634;9.420;2023-02-21T15:29:11;99120.63;;;13.97;76.47
53270;BME280;39159;45.634;9.420;2023-02-21T15:34:27;99112.31;;;13.76;79.13
53270;BME280;39159;45.634;9.420;2023-02-21T15:37:19;99109.88;;;13.83;78.52
53270;BME280;39159;45.634;9.420;2023-02-21T15:40:06;99108.41;;;13.86;78.18
53270;BME280;39159;45.634;9.420;2023-02-21T15:42:39;99104.53;;;13.78;78.78
53270;BME280;39159;45.634;9.420;2023-02-21T15:45:09;99103.25;;;13.76;77.90
53270;BME280;39159;45.634;9.420;2023-02-21T15:47:40;99105.84;;;13.63;75.29
53270;BME280;39159;45.634;9.420;2023-02-21T15:50:28;99109.41;;;13.55;75.22
53270;BME280;39159;45.634;9.420;2023-02-21T15:52:55;99111.53;;;13.50;76.36
53270;BME280;39159;45.634;9.420;2023-02-21T15:58:02;99111.34;;;13.37;77.94
53270;BME280;39159;45.634;9.420;2023-02-21T16:00:36;99114.56;;;13.39;78.67
53270;BME280;39159;45.634;9.420;2023-02-21T16:06:21;99112.16;;;13.29;81.31
53270;BME280;39159;45.634;9.420;2023-02-21T16:09:06;99110.53;;;13.28;82.03
53270;BME280;39159;45.634;9.420;2023-02-21T16:14:47;99114.03;;;13.20;82.96
53270;BME280;39159;45.634;9.420;2023-02-21T16:19:55;99112.13;;;13.12;83.95
53270;BME280;39159;45.634;9.420;2023-02-21T16:22:36;99115.00;;;13.06;84.34
53270;BME280;39159;45.634;9.420;2023-02-21T16:27:35;99118.69;;;12.93;86.12
53270;BME280;39159;45.634;9.420;2023-02-21T16:30:01;99117.06;;;12.83;86.85
53270;BME280;39159;45.634;9.420;2023-02-21T16:32:27;99108.34;;;12.73;88.65
53270;BME280;39159;45.634;9.420;2023-02-21T16:34:52;99121.69;;;12.65;89.04
53270;BME280;39159;45.634;9.420;2023-02-21T16:37:19;99113.13;;;12.58;89.59
53270;BME280;39159;45.634;9.420;2023-02-21T16:39:46;99114.88;;;12.54;90.26
53270;BME280;39159;45.634;9.420;2023-02-21T16:42:11;99124.69;;;12.55;90.91
53270;BME280;39159;45.634;9.420;2023-02-21T16:44:37;99124.53;;;12.52;91.22
53270;BME280;39159;45.634;9.420;2023-02-21T16:47:02;99124.84;;;12.50;91.53